Jacksonville International Airport
KJAX : now visible

Airfield :











YOU CAN JOIN US ON...

 
LOGIN :

Register | Disclaimer

   EN    FR    IT 

 









Legend :    VFR   Marginal VFR   IFR   Intensive IFR   Very Intensive IFR
Visi :
Ceiling :
>= 8 km
>= 3000ft
5 to 8 km
1000 to 3000 ft
1500m to 5 km
500 to 1000 ft
800 to 1500m
200 to 500 ft
< 800m
< 200 ft
Symbols :   Thunderstorms  Fog  Heavy snow  Heavy precipitations  Wind > 20 kt






- Airport Elevation : 30 ft
- IATA code : JAX


KJAX - Jacksonville International

CURRENT METAR :
  • 031356Z 23008KT 10SM BKN015 BKN090 BKN200 26/23 A2994 RMK AO2 SLP138 T02610233

EXPIRED METARs :
  • 031350Z 24009KT 10SM BKN015 BKN090 BKN200 26/23 A2994 RMK AO2
  • 031256Z 23008KT 10SM BKN012 BKN090 24/23 A2993 RMK AO2 SLP135 T02440233
  • 031202Z 23007KT 10SM BKN012 BKN090 BKN200 24/23 A2993 RMK AO2 T02390228
  • 031156Z 23007KT 10SM SCT010 SCT050 BKN095 BKN200 24/23 A2992 RMK AO2 SLP134 60003 70079 T02390228 10239 20233 53005
  • 031134Z 22007KT 10SM SCT010 BKN110 OVC200 23/23 A2993 RMK AO2 T02330228

TAF KJAX
Valid from the 03 at 12:00 until the 04 at 12:00 UTC


031153Z 0312/0412 21008KT P6SM VCSH SCT010 OVC090
TEMPO 0312/0316 BKN015
FM031600 24011KT 5SM SHRA BR VCTS SCT015 BKN025CB OVC090
TEMPO 0317/0321 VRB10G20KT 2SM +TSRA BR SCT009 OVC020CB
FM032200 21007KT P6SM VCTS SCT009 BKN025CB OVC070
FM040600 20004KT P6SM VCSH SCT015 BKN025 OVC120
KZJX FIR / North America



MET'MAP, your aeronautical weather chart ! - Copyright ORBIFLY December 2007 - Disclaimer

ORBIFLY MET'MAP TEAM :

Programming & Development : Alexandra Zaïnal
Concept & original design : Baudouin d'Aumeries
Assistance for programming : Marc-Olivier Méhu
Technical & hardware support : Manuel Goepfert

Contact : metmap@orbifly.com




SOURCES & CREDITS :

   NOAA       Earth
Advisory